Cincinnati Northern Kentucky International Airport
KCVG : now visible

Airfield :











YOU CAN JOIN US ON...

 
LOGIN :

Register | Disclaimer

   EN    FR    IT 

 









Legend :    VFR   Marginal VFR   IFR   Intensive IFR   Very Intensive IFR
Visi :
Ceiling :
>= 8 km
>= 3000ft
5 to 8 km
1000 to 3000 ft
1500m to 5 km
500 to 1000 ft
800 to 1500m
200 to 500 ft
< 800m
< 200 ft
Symbols :   Thunderstorms  Fog  Heavy snow  Heavy precipitations  Wind > 20 kt






- Airport Elevation : 896 ft
- IATA code : CVG


KCVG - Cincinnati Northern Kentucky International

CURRENT METAR :
  • 201041Z 36010KT 2 1/2SM -RA BR BKN005 OVC008 10/08 A3013 RMK AO2 TWR VIS 3 PCPN LGT P0003 T01000083

EXPIRED METARs :
  • 200952Z 35008KT 3SM -RA BR OVC005 11/09 A3010 RMK AO2 SFC VIS 4 SLP190 P0001 T01060094
  • 200906Z 01006KT 6SM -RA BR FEW001 OVC005 11/10 A3009 RMK AO2 P0000 T01110100
  • 200852Z 35009KT 1SM R18C/P6000FT -RA BKN001 OVC007 11/10 A3009 RMK AO2 SFC VIS 7 DZE01RAB25 SLP185 P0001 60018 T01110100 55002
  • 200804Z 35005KT 1/2SM R18C/P6000FT BR OVC001 12/11 A3008 RMK AO2 SFC VIS 1 3/4 DZE01 P0000 T01170106
  • 200752Z 01008KT 1/2SM R18C/P6000FT -DZ BR OVC003 12/11 A3008 RMK AO2 SFC VIS 2 DZB50 SLP183 BCFG P0000 T01170106

TAF KCVG
Valid from the 20 at 09:00 until the 21 at 12:00 UTC


200857Z 2009/2112 36004KT 3SM -SHRA BR OVC002
FM201100 01005KT 2SM -DZ BR OVC002
TEMPO 2011/2014 1SM -DZ BR OVC001
FM201500 06005KT 3SM BR BKN004 OVC007
FM202100 12006KT 5SM BR SCT007 OVC012
FM210000 15006KT P6SM BKN015 OVC030
FM210200 18007KT P6SM BKN035
FM210800 20008KT P6SM VCSH SCT035 OVC050
KZID FIR / North America



MET'MAP, your aeronautical weather chart ! - Copyright ORBIFLY December 2007 - Disclaimer

ORBIFLY MET'MAP TEAM :

Programming & Development : Alexandra Zaïnal
Concept & original design : Baudouin d'Aumeries
Assistance for programming : Marc-Olivier Méhu
Technical & hardware support : Manuel Goepfert

Contact : metmap@orbifly.com




SOURCES & CREDITS :

   NOAA       Earth
Advisory